Time;durP1;ratioP1;P1;durP2;ratioP2;P2;SDS_P1;SDS_P2;PMS_P1;PMS_P2;Temp;Humidity;BMP_temperature;BMP_pressure;BME280_temperature;BME280_humidity;BME280_pressure;Samples;Min_cycle;Max_cycle;Signal;HPM_P1;HPM_P2
2022/11/28 20:20:16;;;;;;;160.19;29.11;;;;;;;;;;4242307;27;20340;-41
2022/11/28 20:21:18;;;;;;;136.35;28.70;;;;;;;;;;2121465;28;20072;-41
2022/11/28 20:22:21;;;;;;;;;;;;;;;;;;2121792;28;20061;-42
2022/11/28 20:23:22;;;;;;;;;;;;;;;;;;2120780;28;19942;-42
2022/11/28 20:24:23;;;;;;;70.38;17.65;;;;;;;;;;2121790;28;20006;-44
2022/11/28 20:25:24;;;;;;;108.78;26.23;;;;;;;;;;2121237;28;20051;-41
2022/11/28 20:26:25;;;;;;;140.20;29.50;;;;;;;;;;2121476;28;20092;-48
2022/11/28 20:27:27;;;;;;;149.90;27.08;;;;;;;;;;2113522;28;20403;-48
2022/11/28 20:28:29;;;;;;;124.70;24.95;;;;;;;;;;2112481;28;20043;-46
2022/11/28 20:29:32;;;;;;;102.75;24.85;;;;;;;;;;2112929;28;20048;-46
2022/11/28 20:30:34;;;;;;;129.32;28.25;;;;;;;;;;2119458;28;20040;-47
2022/11/28 20:31:36;;;;;;;104.82;27.70;;;;;;;;;;2121132;28;20491;-46
2022/11/28 20:32:38;;;;;;;130.13;26.92;;;;;;;;;;2121056;28;20491;-47
2022/11/28 20:33:39;;;;;;;109.97;24.92;;;;;;;;;;2121029;28;20053;-49
2022/11/28 20:34:40;;;;;;;109.70;23.38;;;;;;;;;;2121408;28;20126;-47
2022/11/28 20:35:41;;;;;;;140.43;27.48;;;;;;;;;;2121810;28;20183;-42
2022/11/28 20:36:43;;;;;;;122.45;25.52;;;;;;;;;;2121554;28;20043;-46
2022/11/28 20:37:44;;;;;;;137.07;26.75;;;;;;;;;;2121541;28;20464;-48
2022/11/28 20:38:45;;;;;;;137.00;26.42;;;;;;;;;;2121073;28;20043;-47
2022/11/28 20:39:46;;;;;;;79.63;20.75;;;;;;;;;;2121565;28;20047;-49
2022/11/28 20:40:48;;;;;;;138.75;26.17;;;;;;;;;;2118559;28;20035;-42
2022/11/28 20:41:49;;;;;;;74.60;22.38;;;;;;;;;;2120933;28;20507;-42
2022/11/28 20:42:50;;;;;;;140.90;25.60;;;;;;;;;;2120491;28;20039;-42
2022/11/28 20:43:51;;;;;;;98.45;24.20;;;;;;;;;;2118755;28;20047;-42
2022/11/28 20:44:53;;;;;;;134.80;29.33;;;;;;;;;;2112653;28;20047;-42
2022/11/28 20:45:54;;;;;;;128.38;26.95;;;;;;;;;;2113056;28;20048;-47
2022/11/28 20:46:55;;;;;;;122.82;24.67;;;;;;;;;;2113134;28;20071;-41
2022/11/28 20:47:56;;;;;;;105.75;23.40;;;;;;;;;;2112694;28;20048;-42
2022/11/28 20:48:58;;;;;;;108.35;28.80;;;;;;;;;;2112748;28;20040;-47
2022/11/28 20:49:59;;;;;;;104.00;25.73;;;;;;;;;;2112488;28;20044;-47
2022/11/28 20:51:01;;;;;;;116.63;26.57;;;;;;;;;;2113349;28;20044;-46
2022/11/28 20:52:03;;;;;;;108.13;24.05;;;;;;;;;;2117016;28;20096;-42
2022/11/28 20:53:04;;;;;;;120.80;24.83;;;;;;;;;;2121392;28;20057;-42
2022/11/28 20:54:05;;;;;;;100.20;23.93;;;;;;;;;;2120999;28;20082;-41
2022/11/28 20:55:07;;;;;;;83.97;25.83;;;;;;;;;;2120800;28;20101;-41
2022/11/28 20:56:10;;;;;;;144.05;26.95;;;;;;;;;;2120735;28;20090;-41
2022/11/28 20:57:12;;;;;;;95.88;23.27;;;;;;;;;;2120932;28;20054;-41
2022/11/28 20:58:22;;;;;;;90.38;24.35;;;;;;;;;;2121023;28;20100;-41
2022/11/28 20:59:23;;;;;;;143.13;26.07;;;;;;;;;;2120980;28;20172;-41
2022/11/28 21:00:24;;;;;;;110.57;24.60;;;;;;;;;;2120456;28;20047;-41
2022/11/28 21:01:28;;;;;;;96.25;25.38;;;;;;;;;;2121228;28;20043;-42
2022/11/28 21:02:29;;;;;;;;;;;;;;;;;;2121553;28;20065;-41
2022/11/28 21:03:30;;;;;;;112.35;24.17;;;;;;;;;;2120922;28;19968;-41
2022/11/28 21:04:31;;;;;;;100.83;24.17;;;;;;;;;;2120964;28;20047;-41
2022/11/28 21:05:33;;;;;;;123.60;26.05;;;;;;;;;;2121079;28;20043;-41
2022/11/28 21:06:35;;;;;;;130.13;26.67;;;;;;;;;;2120815;28;20426;-41
2022/11/28 21:07:36;;;;;;;70.80;21.45;;;;;;;;;;2121253;28;20051;-48
2022/11/28 21:08:37;;;;;;;103.60;22.75;;;;;;;;;;2121047;28;20040;-42
2022/11/28 21:09:39;;;;;;;158.02;28.73;;;;;;;;;;2120327;28;20514;-47
2022/11/28 21:10:39;;;;;;;105.22;25.17;;;;;;;;;;2121125;28;20080;-41
2022/11/28 21:11:41;;;;;;;149.93;27.13;;;;;;;;;;2121235;28;20151;-41
2022/11/28 21:12:58;;;;;;;120.97;25.30;;;;;;;;;;2120130;28;20039;-42
2022/11/28 21:14:00;;;;;;;87.57;22.42;;;;;;;;;;2121226;28;20400;-42
2022/11/28 21:15:00;;;;;;;131.90;26.52;;;;;;;;;;2120779;28;20457;-42
2022/11/28 21:16:04;;;;;;;149.30;26.65;;;;;;;;;;2120977;28;20156;-42
2022/11/28 21:17:05;;;;;;;156.43;27.75;;;;;;;;;;2120768;28;20495;-42
2022/11/28 21:18:06;;;;;;;108.57;25.43;;;;;;;;;;2117334;28;20052;-42
2022/11/28 21:19:08;;;;;;;116.45;28.88;;;;;;;;;;2120713;28;20051;-42
2022/11/28 21:20:09;;;;;;;123.88;26.23;;;;;;;;;;2115965;28;20442;-42
2022/11/28 21:21:12;;;;;;;172.00;28.88;;;;;;;;;;2115045;28;20480;-42
2022/11/28 21:22:13;;;;;;;144.10;28.17;;;;;;;;;;2115346;28;20043;-47
2022/11/28 21:23:14;;;;;;;;;;;;;;;;;;2115734;28;20419;-42
2022/11/28 21:24:15;;;;;;;85.13;21.63;;;;;;;;;;2106795;28;20031;-42
2022/11/28 21:25:16;;;;;;;113.63;26.98;;;;;;;;;;2106640;28;20515;-42
2022/11/28 21:26:19;;;;;;;149.80;29.35;;;;;;;;;;2106783;28;20048;-42
2022/11/28 21:27:20;;;;;;;125.10;24.77;;;;;;;;;;2106596;28;20420;-42
2022/11/28 21:28:21;;;;;;;142.25;25.65;;;;;;;;;;2107222;28;20048;-47
2022/11/28 21:29:23;;;;;;;162.48;25.95;;;;;;;;;;2112091;28;20075;-42
2022/11/28 21:30:24;;;;;;;;;;;;;;;;;;2115489;28;20423;-42
2022/11/28 21:31:26;;;;;;;140.48;22.52;;;;;;;;;;2115328;28;20014;-42
2022/11/28 21:32:28;;;;;;;120.10;22.70;;;;;;;;;;2115253;28;20160;-42
2022/11/28 21:33:29;;;;;;;105.78;25.27;;;;;;;;;;2114440;28;20042;-42
2022/11/28 21:34:32;;;;;;;133.48;25.38;;;;;;;;;;2115195;28;20036;-42
2022/11/28 21:35:33;;;;;;;147.27;27.33;;;;;;;;;;2114994;28;20047;-42
2022/11/28 21:36:34;;;;;;;178.67;28.13;;;;;;;;;;2114969;28;20072;-42
2022/11/28 21:37:36;;;;;;;194.95;27.80;;;;;;;;;;2114946;28;20062;-42
2022/11/28 21:38:37;;;;;;;158.95;27.45;;;;;;;;;;2107449;28;20507;-47
2022/11/28 21:39:38;;;;;;;162.13;27.50;;;;;;;;;;2106987;28;20044;-47
2022/11/28 21:40:39;;;;;;;126.93;24.97;;;;;;;;;;2106635;28;20129;-48
2022/11/28 21:41:40;;;;;;;154.60;27.35;;;;;;;;;;2106976;28;20055;-42
2022/11/28 21:42:42;;;;;;;134.63;26.23;;;;;;;;;;2106625;28;20048;-47
2022/11/28 21:43:43;;;;;;;143.25;26.90;;;;;;;;;;2106534;28;20493;-50
2022/11/28 21:44:44;;;;;;;173.37;26.33;;;;;;;;;;2106852;28;20048;-47
2022/11/28 21:45:45;;;;;;;144.95;24.27;;;;;;;;;;2106626;28;20044;-42
2022/11/28 21:46:46;;;;;;;169.63;28.13;;;;;;;;;;2106582;28;20082;-42
2022/11/28 21:47:47;;;;;;;149.43;25.65;;;;;;;;;;2106881;28;20172;-47
2022/11/28 21:48:48;;;;;;;180.00;27.70;;;;;;;;;;2106540;28;20598;-46
2022/11/28 21:49:49;;;;;;;128.23;26.27;;;;;;;;;;2107261;28;20044;-48
2022/11/28 21:50:50;;;;;;;180.50;29.73;;;;;;;;;;2107119;28;20048;-47
2022/11/28 21:51:51;;;;;;;117.03;22.95;;;;;;;;;;2106670;28;20059;-48
2022/11/28 21:52:53;;;;;;;132.02;24.55;;;;;;;;;;2106620;28;20083;-47
2022/11/28 21:53:56;;;;;;;106.72;25.38;;;;;;;;;;2106939;28;20527;-43
2022/11/28 21:54:57;;;;;;;152.05;26.58;;;;;;;;;;2106487;28;20048;-42
2022/11/28 21:55:58;;;;;;;119.43;24.00;;;;;;;;;;2106650;28;20044;-43
2022/11/28 21:56:59;;;;;;;112.78;25.05;;;;;;;;;;2114310;28;20051;-49
2022/11/28 21:58:01;;;;;;;157.68;27.73;;;;;;;;;;2114913;28;20057;-48
2022/11/28 21:59:03;;;;;;;156.60;28.58;;;;;;;;;;2114872;28;20496;-46
2022/11/28 22:00:05;;;;;;;170.63;30.27;;;;;;;;;;2115323;28;20537;-48
2022/11/28 22:01:06;;;;;;;;;;;;;;;;;;2113953;28;20040;-47
2022/11/28 22:02:10;;;;;;;173.63;27.60;;;;;;;;;;2114929;28;19973;-47
2022/11/28 22:03:12;;;;;;;137.98;26.92;;;;;;;;;;2114945;28;20100;-47
2022/11/28 22:04:33;;;;;;;109.07;23.52;;;;;;;;;;2114901;28;20052;-42
2022/11/28 22:05:34;;;;;;;79.13;21.20;;;;;;;;;;2115079;28;20051;-42
2022/11/28 22:06:36;;;;;;;167.70;28.08;;;;;;;;;;2115009;28;20079;-48
2022/11/28 22:07:37;;;;;;;138.23;25.42;;;;;;;;;;2114961;28;20047;-47
2022/11/28 22:08:38;;;;;;;114.07;22.75;;;;;;;;;;2114674;28;20040;-47
2022/11/28 22:09:40;;;;;;;82.25;21.10;;;;;;;;;;2114737;28;20165;-48
2022/11/28 22:10:41;;;;;;;97.53;21.98;;;;;;;;;;2114861;28;20142;-48
2022/11/28 22:11:42;;;;;;;125.85;24.20;;;;;;;;;;2114190;28;20134;-42
2022/11/28 22:12:43;;;;;;;100.07;24.67;;;;;;;;;;2115030;28;20047;-42
2022/11/28 22:13:45;;;;;;;85.63;21.45;;;;;;;;;;2115016;28;20047;-47
2022/11/28 22:14:46;;;;;;;112.63;31.60;;;;;;;;;;2101898;28;20045;-42
2022/11/28 22:15:47;;;;;;;119.68;25.40;;;;;;;;;;2098166;28;20048;-49
2022/11/28 22:16:49;;;;;;;99.15;24.60;;;;;;;;;;2110763;28;20044;-47
2022/11/28 22:17:50;;;;;;;106.40;22.40;;;;;;;;;;2114007;28;20369;-47
2022/11/28 22:18:52;;;;;;;79.50;21.63;;;;;;;;;;2106361;28;20140;-47
2022/11/28 22:19:53;;;;;;;189.55;27.92;;;;;;;;;;2106473;28;20087;-48
2022/11/28 22:20:59;;;;;;;127.33;23.87;;;;;;;;;;2107221;28;20044;-48
2022/11/28 22:22:01;;;;;;;163.07;25.98;;;;;;;;;;2106468;28;20510;-42
2022/11/28 22:23:02;;;;;;;184.73;27.20;;;;;;;;;;2106372;28;20036;-42
2022/11/28 22:24:04;;;;;;;148.35;23.63;;;;;;;;;;2106260;28;20058;-42
2022/11/28 22:25:06;;;;;;;154.90;24.02;;;;;;;;;;2106362;28;20397;-42
2022/11/28 22:26:07;;;;;;;123.35;24.02;;;;;;;;;;2106634;28;20059;-42
2022/11/28 22:27:08;;;;;;;86.90;22.08;;;;;;;;;;2106473;28;20411;-47
2022/11/28 22:28:09;;;;;;;98.93;19.02;;;;;;;;;;2106464;28;20052;-42
2022/11/28 22:29:10;;;;;;;139.57;23.40;;;;;;;;;;2106398;28;20467;-42
2022/11/28 22:30:11;;;;;;;102.57;23.33;;;;;;;;;;2106900;28;20051;-47
2022/11/28 22:31:13;;;;;;;183.25;26.50;;;;;;;;;;2105907;28;20143;-48
2022/11/28 22:32:14;;;;;;;179.70;29.15;;;;;;;;;;2105751;28;20052;-48
2022/11/28 22:33:17;;;;;;;108.88;22.70;;;;;;;;;;2106401;28;20059;-47
2022/11/28 22:34:18;;;;;;;128.80;23.25;;;;;;;;;;2106200;28;20089;-47
2022/11/28 22:35:19;;;;;;;174.32;28.15;;;;;;;;;;2106484;28;20488;-47
2022/11/28 22:36:20;;;;;;;147.70;24.08;;;;;;;;;;2106394;28;20055;-42
2022/11/28 22:37:21;;;;;;;170.05;26.42;;;;;;;;;;2106236;28;20545;-42
2022/11/28 22:38:22;;;;;;;156.52;22.13;;;;;;;;;;2106279;28;20074;-42
2022/11/28 22:39:24;;;;;;;166.27;20.23;;;;;;;;;;2106388;28;20082;-42
2022/11/28 22:40:25;;;;;;;184.15;26.67;;;;;;;;;;2106292;28;20043;-47
2022/11/28 22:41:26;;;;;;;150.43;24.80;;;;;;;;;;2105991;28;20052;-48
2022/11/28 22:42:30;;;;;;;103.70;21.48;;;;;;;;;;2098109;28;20048;-42
2022/11/28 22:43:31;;;;;;;169.18;24.80;;;;;;;;;;2097658;28;20409;-42
2022/11/28 22:44:32;;;;;;;147.27;25.33;;;;;;;;;;2098290;28;20056;-47
2022/11/28 22:45:33;;;;;;;101.80;22.52;;;;;;;;;;2097815;28;20048;-48
2022/11/28 22:46:35;;;;;;;143.43;24.02;;;;;;;;;;2098153;28;20049;-47
2022/11/28 22:47:36;;;;;;;162.07;23.80;;;;;;;;;;2097960;28;20484;-42
2022/11/28 22:48:37;;;;;;;114.97;21.30;;;;;;;;;;2098082;28;20044;-47
2022/11/28 22:49:38;;;;;;;131.77;22.45;;;;;;;;;;2097642;28;20074;-47
2022/11/28 22:50:40;;;;;;;178.23;25.42;;;;;;;;;;2097957;28;20049;-42
2022/11/28 22:51:41;;;;;;;92.68;17.85;;;;;;;;;;2097914;28;20045;-42
2022/11/28 22:52:43;;;;;;;122.07;18.77;;;;;;;;;;2098010;28;20071;-42
2022/11/28 22:53:44;;;;;;;107.60;20.25;;;;;;;;;;2098274;28;20044;-47
2022/11/28 22:54:47;;;;;;;96.82;20.67;;;;;;;;;;2097936;28;20049;-47
2022/11/28 22:55:49;;;;;;;107.45;21.52;;;;;;;;;;2097851;28;20509;-42
2022/11/28 22:56:51;;;;;;;138.30;25.90;;;;;;;;;;2097684;28;20182;-42
2022/11/28 22:57:52;;;;;;;65.40;15.68;;;;;;;;;;2097844;28;20056;-42
2022/11/28 22:58:53;;;;;;;109.13;20.00;;;;;;;;;;2097563;28;20056;-43
2022/11/28 22:59:55;;;;;;;98.33;17.80;;;;;;;;;;2098070;28;20078;-47
2022/11/28 23:00:55;;;;;;;71.57;15.30;;;;;;;;;;2097706;28;20827;-46
2022/11/28 23:01:57;;;;;;;93.10;18.20;;;;;;;;;;2097918;28;20053;-47
2022/11/28 23:02:58;;;;;;;112.18;20.95;;;;;;;;;;2109956;28;20119;-47
2022/11/28 23:03:59;;;;;;;115.80;19.13;;;;;;;;;;2114676;28;20131;-47
2022/11/28 23:05:00;;;;;;;93.10;17.90;;;;;;;;;;2115099;28;20052;-48
2022/11/28 23:06:03;;;;;;;93.15;19.67;;;;;;;;;;2115140;28;20062;-48
2022/11/28 23:07:04;;;;;;;108.28;17.27;;;;;;;;;;2113650;28;20058;-42
2022/11/28 23:08:06;;;;;;;85.25;17.38;;;;;;;;;;2114503;28;20447;-42
2022/11/28 23:09:08;;;;;;;92.00;18.17;;;;;;;;;;2114454;28;20476;-42
2022/11/28 23:10:09;;;;;;;;;;;;;;;;;;2114984;28;20101;-42
2022/11/28 23:11:13;;;;;;;67.60;15.38;;;;;;;;;;2098906;28;20388;-42
2022/11/28 23:12:13;;;;;;;82.43;17.83;;;;;;;;;;2097890;28;20048;-42
2022/11/28 23:13:15;;;;;;;101.53;17.43;;;;;;;;;;2097542;28;20431;-42
2022/11/28 23:14:16;;;;;;;100.32;18.40;;;;;;;;;;2097635;28;20064;-42
2022/11/28 23:15:17;;;;;;;103.63;18.45;;;;;;;;;;2100207;28;20044;-47
2022/11/28 23:16:19;;;;;;;65.65;18.17;;;;;;;;;;2114355;28;20488;-49
2022/11/28 23:17:21;;;;;;;83.72;19.33;;;;;;;;;;2114405;28;20131;-47
2022/11/28 23:18:22;;;;;;;112.63;18.30;;;;;;;;;;2109147;28;20047;-47
2022/11/28 23:19:23;;;;;;;87.88;17.30;;;;;;;;;;2106384;28;20040;-42
2022/11/28 23:20:24;;;;;;;90.55;16.95;;;;;;;;;;2105989;28;20055;-42
2022/11/28 23:21:28;;;;;;;77.00;15.93;;;;;;;;;;2106162;28;20125;-42
2022/11/28 23:22:33;;;;;;;76.88;17.10;;;;;;;;;;2106051;28;20044;-42
2022/11/28 23:23:34;;;;;;;70.95;16.55;;;;;;;;;;2112468;28;20055;-48
2022/11/28 23:24:35;;;;;;;104.50;20.27;;;;;;;;;;2113731;28;20048;-42
2022/11/28 23:25:36;;;;;;;82.28;16.90;;;;;;;;;;2114275;28;20503;-42
2022/11/28 23:26:38;;;;;;;89.93;18.70;;;;;;;;;;2114391;28;20044;-42
2022/11/28 23:27:39;;;;;;;66.57;15.68;;;;;;;;;;2114632;28;20051;-42
2022/11/28 23:28:40;;;;;;;69.90;16.58;;;;;;;;;;2114403;28;20473;-42
2022/11/28 23:29:42;;;;;;;70.07;16.17;;;;;;;;;;2114700;28;20294;-47
2022/11/28 23:30:43;;;;;;;61.95;16.08;;;;;;;;;;2114270;28;20065;-48
2022/11/28 23:31:44;;;;;;;60.60;16.42;;;;;;;;;;2114685;28;20048;-42
2022/11/28 23:32:45;;;;;;;56.95;14.63;;;;;;;;;;2114450;28;20423;-42
2022/11/28 23:33:47;;;;;;;67.13;16.92;;;;;;;;;;2114115;28;20051;-42
2022/11/28 23:34:48;;;;;;;64.35;17.13;;;;;;;;;;2114847;28;20043;-42
2022/11/28 23:35:49;;;;;;;58.97;16.05;;;;;;;;;;2114829;28;20399;-42
2022/11/28 23:36:50;;;;;;;82.35;16.58;;;;;;;;;;2114247;28;20065;-42
2022/11/28 23:37:51;;;;;;;70.63;16.10;;;;;;;;;;2114427;28;20100;-42
2022/11/28 23:38:54;;;;;;;43.20;14.53;;;;;;;;;;2114154;28;20109;-42
2022/11/28 23:39:55;;;;;;;67.03;19.02;;;;;;;;;;2114346;28;20044;-48
2022/11/28 23:40:56;;;;;;;57.10;16.80;;;;;;;;;;2114380;28;20135;-47
2022/11/28 23:41:58;;;;;;;43.88;15.32;;;;;;;;;;2114182;28;20044;-49
2022/11/28 23:42:59;;;;;;;;;;;;;;;;;;2114518;28;20052;-48
2022/11/28 23:44:00;;;;;;;42.35;14.95;;;;;;;;;;2114175;28;19919;-47
2022/11/28 23:45:01;;;;;;;49.15;17.55;;;;;;;;;;2114311;28;20044;-48
2022/11/28 23:46:03;;;;;;;46.47;16.67;;;;;;;;;;2114473;28;20051;-43
2022/11/28 23:47:04;;;;;;;43.42;16.15;;;;;;;;;;2114554;28;20058;-43
2022/11/28 23:48:05;;;;;;;58.40;20.25;;;;;;;;;;2114204;28;20471;-48
2022/11/28 23:49:07;;;;;;;44.33;16.23;;;;;;;;;;2114189;28;20047;-47
2022/11/28 23:50:08;;;;;;;50.45;18.08;;;;;;;;;;2114139;28;20519;-47
2022/11/28 23:51:11;;;;;;;50.42;17.55;;;;;;;;;;2114232;28;20067;-48
2022/11/28 23:52:12;;;;;;;33.50;11.50;;;;;;;;;;2114289;28;20418;-48
2022/11/28 23:53:13;;;;;;;57.00;17.27;;;;;;;;;;2113850;28;20047;-50
2022/11/28 23:54:15;;;;;;;51.87;19.10;;;;;;;;;;2106120;28;20065;-47
2022/11/28 23:55:16;;;;;;;58.40;18.58;;;;;;;;;;2106067;28;20083;-42
2022/11/28 23:56:18;;;;;;;45.00;16.65;;;;;;;;;;2106047;28;20483;-43
2022/11/28 23:57:19;;;;;;;;;;;;;;;;;;2106083;28;20052;-43
2022/11/28 23:58:21;;;;;;;56.15;15.00;;;;;;;;;;2105609;28;20001;-42
2022/11/28 23:59:21;;;;;;;54.50;16.40;;;;;;;;;;2105757;28;20131;-42
